Augusta, Kansas
Current Conditions -  °F | °C
As of 10:55 PM on Wednesday 22 Oct 2014 (Local Time) from KEQA Reporting Station
Light Rain Light Rain  
Wind Chill: 66°   Ceiling: 4300
Heat Index: 66°   Visibility: 10mi
Dew Point: 61°   Wind: 12mph
Humidity: 83%   Direction: 190°S
Pressure: 30.1"   Gusts: 18mph
Location:  37.68°N, 96.98°W
Report Text: KEQA 230355Z AUTO 19010G16KT 10SM -RA SCT036 BKN043 OVC060 19/16 A3010 RMK AO2
Loading
Personal Weather Stations






























Interactive Weather Map New forecast layout! Learn more

10-Day Weather Forecast

Advertisements
Track Severe Weather on mobile